Time;durP1;ratioP1;P1;durP2;ratioP2;P2;SDS_P1;SDS_P2;PMS_P1;PMS_P2;Temp;Humidity;BMP_temperature;BMP_pressure;BME280_temperature;BME280_humidity;BME280_pressure;Samples;Min_cycle;Max_cycle;Signal;HPM_P1;HPM_P2
2021/12/19 00:01:27;;;;;;;10.35;4.60;;;;;;;;;;5122045;27;20078;-89
2021/12/19 00:04:02;;;;;;;8.68;5.20;;;;;;;;;;5139445;27;20043;-88
2021/12/19 00:09:13;;;;;;;7.32;3.08;;;;;;;;;;5135617;27;20471;-87
2021/12/19 00:11:39;;;;;;;7.40;4.28;;;;;;;;;;5118628;27;20047;-88
2021/12/19 00:14:06;;;;;;;5.53;3.45;;;;;;;;;;5118805;27;20061;-89
2021/12/19 00:16:33;;;;;;;4.28;1.92;;;;;;;;;;5118439;27;20047;-89
2021/12/19 00:18:59;;;;;;;1.40;1.15;;;;;;;;;;5136353;27;20360;-88
2021/12/19 00:21:28;;;;;;;2.60;1.25;;;;;;;;;;5117913;27;20043;-88
2021/12/19 00:23:54;;;;;;;10.65;1.50;;;;;;;;;;5119115;27;20072;-88
2021/12/19 00:26:20;;;;;;;2.47;1.55;;;;;;;;;;5118488;27;20043;-88
2021/12/19 00:28:47;;;;;;;1.60;1.48;;;;;;;;;;5118696;27;20051;-89
2021/12/19 00:31:13;;;;;;;2.47;1.65;;;;;;;;;;5135308;27;20035;-88
2021/12/19 00:33:40;;;;;;;7.53;2.17;;;;;;;;;;5118098;27;20096;-88
2021/12/19 00:36:07;;;;;;;5.88;1.85;;;;;;;;;;5117765;27;20031;-88
2021/12/19 00:38:33;;;;;;;2.97;1.65;;;;;;;;;;5134632;27;20131;-88
2021/12/19 00:40:59;;;;;;;2.13;1.52;;;;;;;;;;5135939;27;20081;-88
2021/12/19 00:46:19;;;;;;;2.08;0.93;;;;;;;;;;5110791;27;20427;-88
2021/12/19 00:48:47;;;;;;;6.80;1.63;;;7.50;99.90;;;;;;5118961;27;20039;-87
2021/12/19 00:51:15;;;;;;;1.33;1.00;;;;;;;;;;5118017;27;20483;-87
2021/12/19 00:53:43;;;;;;;3.67;1.00;;;7.50;99.90;;;;;;5134694;27;20084;-88
2021/12/19 00:56:09;;;;;;;1.25;1.08;;;;;;;;;;5134759;27;20035;-88
2021/12/19 00:58:35;;;;;;;1.85;1.42;;;;;;;;;;5117392;27;20064;-87
2021/12/19 01:01:02;;;;;;;6.57;1.55;;;;;;;;;;5134920;27;20074;-87
2021/12/19 01:03:28;;;;;;;1.85;0.95;;;;;;;;;;5134719;27;20445;-88
2021/12/19 01:05:54;;;;;;;1.88;0.88;;;;;;;;;;5117498;27;20085;-87
2021/12/19 01:08:20;;;;;;;0.63;0.63;;;;;;;;;;5135238;27;20456;-87
2021/12/19 01:10:47;;;;;;;1.05;0.80;;;;;;;;;;5118041;27;20142;-87
2021/12/19 01:13:14;;;;;;;0.88;0.70;;;;;;;;;;5117668;27;20092;-87
2021/12/19 01:15:41;;;;;;;1.25;0.90;;;;;;;;;;5118226;27;20385;-88
2021/12/19 01:18:07;;;;;;;2.35;1.15;;;;;;;;;;5118394;27;20300;-87
2021/12/19 01:20:36;;;;;;;0.70;0.70;;;7.60;99.90;;;;;;5135651;27;20051;-88
2021/12/19 01:23:04;;;;;;;1.75;0.85;;;7.50;99.90;;;;;;5117600;27;20054;-89
2021/12/19 01:25:31;;;;;;;1.75;0.90;;;7.30;99.90;;;;;;5118481;27;20054;-88
2021/12/19 01:27:57;;;;;;;2.88;1.00;;;;;;;;;;5116913;27;20173;-90
2021/12/19 01:30:24;;;;;;;2.13;0.93;;;;;;;;;;5116942;27;20082;-89
2021/12/19 01:32:50;;;;;;;1.98;1.35;;;;;;;;;;5117186;27;20074;-89
2021/12/19 01:35:17;;;;;;;4.03;1.40;;;;;;;;;;5116264;27;20051;-88
2021/12/19 01:37:43;;;;;;;1.92;1.27;;;;;;;;;;5134183;27;20035;-88
2021/12/19 01:40:10;;;;;;;4.38;1.70;;;;;;;;;;5117094;27;20065;-89
2021/12/19 01:42:39;;;;;;;2.15;1.17;;;;;;;;;;5117377;27;20035;-88
2021/12/19 01:45:07;;;;;;;1.77;1.05;;;;;;;;;;5116481;28;20069;-89
2021/12/19 01:47:33;;;;;;;1.67;0.90;;;;;;;;;;5117171;28;20039;-89
2021/12/19 01:49:59;;;;;;;1.02;1.00;;;;;;;;;;5134645;28;20130;-89
2021/12/19 01:52:28;;;;;;;1.52;0.93;;;;;;;;;;5134409;28;20076;-89
2021/12/19 01:54:55;;;;;;;1.48;0.95;;;;;;;;;;5116885;28;20046;-89
2021/12/19 01:57:22;;;;;;;0.80;0.80;;;;;;;;;;5117591;28;20480;-88
2021/12/19 01:59:48;;;;;;;1.40;0.70;;;;;;;;;;5117369;28;20447;-89
2021/12/19 02:02:14;;;;;;;2.72;0.73;;;;;;;;;;5117383;28;20043;-89
2021/12/19 02:04:42;;;;;;;3.70;1.20;;;;;;;;;;5116509;28;20043;-88
2021/12/19 02:07:09;;;;;;;3.30;0.88;;;;;;;;;;5116492;28;20043;-88
2021/12/19 02:09:36;;;;;;;1.00;0.90;;;;;;;;;;5116665;28;20055;-89
2021/12/19 02:12:03;;;;;;;1.40;0.80;;;;;;;;;;5134208;28;20047;-88
2021/12/19 02:14:29;;;;;;;4.07;1.42;;;;;;;;;;5117432;28;20125;-89
2021/12/19 02:16:56;;;;;;;4.65;1.20;;;;;;;;;;5116771;28;20039;-88
2021/12/19 02:19:25;;;;;;;2.10;1.17;;;;;;;;;;5133947;28;20135;-89
2021/12/19 02:21:51;;;;;;;2.13;1.23;;;;;;;;;;5116544;28;20039;-91
2021/12/19 02:24:17;;;;;;;1.85;0.90;;;;;;;;;;5117480;28;20096;-89
2021/12/19 02:26:44;;;;;;;3.50;1.02;;;;;;;;;;5116130;28;20118;-89
2021/12/19 02:29:10;;;;;;;2.80;0.95;;;;;;;;;;5116780;28;20068;-89
2021/12/19 02:31:36;;;;;;;2.10;1.02;;;;;;;;;;5133616;28;20047;-89
2021/12/19 02:34:08;;;;;;;4.72;1.00;;;;;;;;;;5116488;28;20043;-90
2021/12/19 02:36:48;;;;;;;1.95;1.10;;;;;;;;;;5117518;28;20039;-89
2021/12/19 02:39:39;;;;;;;1.52;0.73;;;;;;;;;;5134381;28;20043;-91
2021/12/19 02:50:01;;;;;;;1.35;0.80;;;;;;;;;;5138633;27;20047;-90
2021/12/19 02:52:28;;;;;;;0.73;0.60;;;;;;;;;;5120256;27;20078;-88
2021/12/19 02:54:54;;;;;;;0.65;0.60;;;;;;;;;;5120492;27;20061;-90
2021/12/19 02:57:20;;;;;;;8.07;2.10;;;;;;;;;;5137257;27;20050;-91
2021/12/19 02:59:46;;;;;;;4.68;1.20;;;;;;;;;;5119736;27;20096;-91
2021/12/19 03:02:12;;;;;;;5.88;1.42;;;;;;;;;;5120101;27;20035;-91
2021/12/19 03:04:38;;;;;;;3.10;0.90;;;;;;;;;;5120346;27;20040;-89
2021/12/19 03:07:04;;;;;;;2.20;0.82;;;;;;;;;;5120043;27;20072;-90
2021/12/19 03:09:51;;;;;;;2.88;1.00;;;;;;;;;;5119632;27;20077;-90
2021/12/19 03:20:15;;;;;;;4.07;1.30;;;;;;;;;;5137003;27;20040;-90
2021/12/19 03:22:41;;;;;;;2.08;1.38;;;;;;;;;;5119675;27;20047;-89
2021/12/19 03:25:07;;;;;;;4.18;1.20;;;;;;;;;;5120592;27;20047;-90
2021/12/19 03:27:33;;;;;;;3.30;1.45;;;;;;;;;;5136274;27;20043;-91
2021/12/19 03:29:59;;;;;;;3.80;1.20;;;;;;;;;;5119810;27;20043;-90
2021/12/19 03:32:26;;;;;;;3.25;1.20;;;;;;;;;;5119989;27;20050;-90
2021/12/19 03:34:53;;;;;;;3.63;1.80;;;;;;;;;;5120629;27;20039;-90
2021/12/19 03:37:19;;;;;;;6.07;2.33;;;;;;;;;;5119651;27;20088;-89
2021/12/19 03:40:06;;;;;;;8.63;1.65;;;;;;;;;;5119410;27;20039;-90
2021/12/19 03:42:31;;;;;;;5.93;1.70;;;;;;;;;;5136570;27;20043;-91
2021/12/19 03:44:57;;;;;;;2.45;1.35;;;;;;;;;;5136436;27;20043;-89
2021/12/19 03:47:23;;;;;;;2.22;1.40;;;;;;;;;;5119865;27;20039;-91
2021/12/19 03:49:49;;;;;;;3.30;1.15;;;;;;;;;;5136528;27;20043;-92
2021/12/19 03:52:15;;;;;;;1.90;1.13;;;;;;;;;;5119428;27;20135;-92
2021/12/19 03:54:41;;;;;;;3.45;1.10;;;;;;;;;;5138168;27;20047;-91
2021/12/19 03:57:07;;;;;;;1.85;1.20;;;;;;;;;;5136312;27;20534;-91
2021/12/19 03:59:33;;;;;;;1.58;1.48;;;;;;;;;;5119535;27;20046;-91
2021/12/19 04:02:00;;;;;;;1.27;0.93;;;;;;;;;;5120778;27;20039;-90
2021/12/19 04:04:26;;;;;;;4.95;1.23;;;;;;;;;;5119450;27;20130;-91
2021/12/19 04:06:52;;;;;;;5.53;1.50;;;;;;;;;;5119517;27;20104;-92
2021/12/19 04:09:18;;;;;;;4.05;1.90;;;;;;;;;;5119733;27;20059;-92
2021/12/19 04:11:44;;;;;;;7.85;2.47;;;;;;;;;;5118809;27;20486;-91
2021/12/19 04:14:10;;;;;;;8.23;2.38;;;;;;;;;;5135376;27;20047;-92
2021/12/19 04:16:36;;;;;;;13.80;3.08;;;;;;;;;;5119073;27;20043;-92
2021/12/19 04:19:02;;;;;;;4.10;2.75;;;;;;;;;;5136070;27;20103;-91
2021/12/19 04:21:28;;;;;;;8.70;3.10;;;;;;;;;;5135401;27;20407;-91
2021/12/19 04:23:54;;;;;;;18.25;3.88;;;;;;;;;;5118415;27;20043;-91
2021/12/19 04:26:20;;;;;;;7.45;3.95;;;;;;;;;;5135052;27;20042;-87
2021/12/19 04:28:46;;;;;;;9.23;3.85;;;;;;;;;;5118052;27;20043;-87
2021/12/19 04:31:12;;;;;;;7.13;3.67;;;;;;;;;;5117624;27;20046;-87
2021/12/19 04:33:40;;;;;;;17.42;4.10;;;;;;;;;;5117747;27;20080;-88
2021/12/19 04:36:08;;;;;;;8.02;3.75;;;;;;;;;;5118204;27;20058;-87
2021/12/19 04:57:38;;;;;;;14.50;3.85;;;;;;;;;;5135548;27;20051;-87
2021/12/19 05:00:16;;;;;;;9.90;4.82;;;;;;;;;;5135348;27;20047;-88
2021/12/19 05:15:51;;;;;;;20.23;7.28;;;;;;;;;;5135096;27;20084;-87
2021/12/19 05:18:19;;;;;;;15.40;7.63;;;;;;;;;;5118023;27;20047;-88
2021/12/19 05:21:12;;;;;;;19.20;8.90;;;;;;;;;;5117391;27;20043;-89
2021/12/19 05:26:01;;;;;;;18.65;8.40;;;;;;;;;;5135257;27;20108;-87
2021/12/19 05:28:27;;;;;;;21.10;9.27;;;;;;;;;;5117593;27;20645;-87
2021/12/19 05:30:53;;;;;;;16.88;7.15;;;;;;;;;;5117551;27;20053;-90
2021/12/19 05:33:19;;;;;;;20.73;7.57;;;;;;;;;;5134908;27;20050;-88
2021/12/19 05:36:04;;;;;;;17.63;7.18;;;;;;;;;;5117003;28;20050;-88
2021/12/19 05:46:34;;;;;;;20.98;8.20;;;;;;;;;;5133813;28;20075;-89
2021/12/19 05:49:03;;;;;;;13.02;5.75;;;;;;;;;;5117142;28;20045;-87
2021/12/19 05:51:29;;;;;;;15.60;5.78;;;;;;;;;;5116845;28;20035;-88
2021/12/19 05:53:55;;;;;;;15.93;5.95;;;;;;;;;;5116762;28;20503;-87
2021/12/19 05:56:21;;;;;;;22.83;6.78;;;;;;;;;;5117161;28;20537;-88
2021/12/19 05:58:47;;;;;;;16.17;6.13;;;;;;;;;;5134146;28;20062;-87
2021/12/19 06:01:13;;;;;;;19.92;5.97;;;;;;;;;;5116853;28;20426;-88
2021/12/19 06:03:39;;;;;;;12.23;5.57;;;;;;;;;;5134664;28;20039;-88
2021/12/19 06:06:06;;;;;;;12.32;5.50;;;;;;;;;;5133776;28;20040;-87
2021/12/19 06:08:32;;;;;;;15.23;5.10;;;;;;;;;;5117430;27;20039;-88
2021/12/19 06:10:58;;;;;;;11.85;4.55;;;;;;;;;;5137460;27;20059;-88
2021/12/19 06:13:24;;;;;;;15.20;4.70;;;;;;;;;;5120638;27;20035;-87
2021/12/19 06:15:53;;;;;;;19.15;5.57;;;;;;;;;;5136862;27;20047;-87
2021/12/19 06:18:19;;;;;;;8.95;5.13;;;;;;;;;;5120081;27;20046;-88
2021/12/19 06:20:45;;;;;;;17.55;5.53;;;;;;;;;;5122271;27;20050;-88
2021/12/19 06:23:11;;;;;;;13.25;5.88;;;;;;;;;;5124076;27;20031;-87
2021/12/19 06:25:45;;;;;;;29.45;6.85;;;;;;;;;;5124430;27;20065;-87
2021/12/19 06:28:11;;;;;;;15.32;7.07;;;;;;;;;;5124328;27;20390;-87
2021/12/19 06:30:37;;;;;;;14.60;5.65;;;;;;;;;;5141077;27;20051;-87
2021/12/19 06:33:03;;;;;;;13.10;5.75;;;;;;;;;;5124109;27;20076;-87
2021/12/19 06:35:30;;;;;;;16.65;4.82;;;;;;;;;;5124301;27;20047;-87
2021/12/19 06:37:56;;;;;;;17.35;4.80;;;;;;;;;;5140523;27;20099;-87
2021/12/19 06:40:23;;;;;;;17.85;5.32;;;;;;;;;;5123811;27;20038;-88
2021/12/19 06:42:49;;;;;;;11.32;4.53;;;;;;;;;;5124037;27;20103;-87
2021/12/19 06:45:15;;;;;;;20.23;4.65;;;;;;;;;;5123808;27;20512;-87
2021/12/19 06:47:41;;;;;;;12.88;3.67;;;;;;;;;;5142255;27;20050;-87
2021/12/19 06:50:08;;;;;;;8.35;4.05;;;;;;;;;;5123836;27;20107;-88
2021/12/19 06:52:34;;;;;;;17.10;5.20;;;;;;;;;;5141069;27;20087;-88
2021/12/19 06:55:00;;;;;;;10.05;3.08;;;;;;;;;;5140666;27;20045;-89
2021/12/19 06:57:27;;;;;;;8.05;3.83;;;;;;;;;;5140144;27;20038;-88
2021/12/19 06:59:53;;;;;;;9.55;2.15;;;;;;;;;;5140699;27;20053;-88
2021/12/19 07:02:19;;;;;;;10.32;3.53;;;;;;;;;;5140880;27;20134;-88
2021/12/19 07:04:45;;;;;;;9.07;3.08;;;;;;;;;;5123246;27;20559;-88
2021/12/19 07:07:12;;;;;;;6.18;2.53;;;;;;;;;;5140377;27;20038;-88
2021/12/19 07:09:38;;;;;;;14.20;3.78;;;;;;;;;;5123162;27;20062;-89
2021/12/19 07:12:06;;;;;;;9.25;3.55;;;;;;;;;;5139835;27;20054;-88
2021/12/19 07:14:32;;;;;;;10.10;4.20;;;;;;;;;;5122400;27;20046;-88
2021/12/19 07:16:58;;;;;;;8.32;3.55;;;;;;;;;;5123142;27;20106;-88
2021/12/19 07:19:24;;;;;;;8.65;3.38;;;;;;;;;;5124948;27;20051;-89
2021/12/19 07:21:50;;;;;;;8.52;3.58;;;;;;;;;;5124257;27;20043;-88
2021/12/19 07:24:16;;;;;;;16.55;3.90;;;;;;;;;;5124194;27;20491;-88
2021/12/19 07:26:42;;;;;;;12.65;4.28;;;;;;;;;;5124105;27;20022;-87
2021/12/19 07:29:08;;;;;;;16.15;3.92;;;;;;;;;;5124581;27;20051;-87
2021/12/19 07:31:37;;;;;;;11.15;4.05;;;;;;;;;;5123571;27;20043;-88
2021/12/19 07:34:04;;;;;;;16.80;3.72;;;;;;;;;;5140372;27;20049;-88
2021/12/19 07:36:38;;;;;;;9.82;3.75;;;;;;;;;;5124885;27;20035;-88
2021/12/19 07:39:09;;;;;;;10.13;4.07;;;;;;;;;;5123597;27;20043;-88
2021/12/19 07:41:35;;;;;;;11.50;3.33;;;;;;;;;;5140208;27;20483;-88
2021/12/19 07:44:01;;;;;;;19.52;3.70;;;;;;;;;;5122815;27;20042;-88
2021/12/19 07:46:27;;;;;;;15.95;3.58;;;;;;;;;;5122583;27;20098;-89
2021/12/19 07:48:53;;;;;;;28.15;2.97;;;;;;;;;;5139788;27;20070;-89
2021/12/19 07:51:20;;;;;;;9.98;2.92;;;;;;;;;;5122464;27;20039;-88
2021/12/19 07:53:46;;;;;;;7.70;3.08;;;;;;;;;;5122138;27;20043;-88
2021/12/19 07:56:12;;;;;;;11.88;3.88;;;;;;;;;;5140301;27;20385;-88
2021/12/19 07:58:38;;;;;;;10.07;2.80;;;;;;;;;;5139589;27;20042;-88
2021/12/19 08:01:04;;;;;;;6.55;2.88;;;;;;;;;;5122561;27;20070;-89
2021/12/19 08:03:30;;;;;;;15.40;3.05;;;;;;;;;;5122111;27;20043;-89
2021/12/19 08:05:56;;;;;;;9.57;3.38;;;;;;;;;;5122120;27;20042;-89
2021/12/19 08:08:26;;;;;;;10.70;2.63;;;;;;;;;;5139457;27;20141;-89
2021/12/19 08:13:39;;;;;;;8.25;2.53;;;;;;;;;;5139042;27;20058;-88
2021/12/19 08:16:05;;;;;;;8.98;3.05;;;;;;;;;;5121372;27;20042;-88
2021/12/19 08:18:31;;;;;;;6.88;2.50;;;;;;;;;;5139631;27;20459;-89
2021/12/19 08:20:57;;;;;;;11.93;2.90;;;;;;;;;;5139815;27;20053;-88
2021/12/19 08:23:23;;;;;;;13.80;3.20;;;;;;;;;;5122072;27;20043;-89
2021/12/19 08:25:50;;;;;;;5.63;2.50;;;;;;;;;;5139541;27;20475;-89
2021/12/19 08:28:16;;;;;;;7.13;2.92;;;;;;;;;;5139316;27;20035;-89
2021/12/19 08:30:42;;;;;;;9.88;3.45;;;;;;;;;;5122968;27;20099;-89
2021/12/19 08:33:08;;;;;;;7.35;2.28;;;;;;;;;;5121183;27;20053;-89
2021/12/19 08:35:34;;;;;;;5.63;1.88;;;;;;;;;;5121682;27;20043;-88
2021/12/19 08:38:00;;;;;;;12.00;2.20;;;;;;;;;;5138573;27;20042;-88
2021/12/19 08:40:27;;;;;;;7.70;2.35;;;;;;;;;;5121936;27;20096;-88
2021/12/19 08:42:53;;;;;;;9.20;2.40;;;;;;;;;;5121664;27;20062;-88
2021/12/19 08:45:21;;;;;;;5.43;2.22;;;7.50;99.90;;;;;;5122825;27;20061;-88
2021/12/19 08:47:47;;;;;;;5.75;2.67;;;;;;;;;;5122168;27;20479;-88
2021/12/19 08:50:13;;;;;;;9.38;2.80;;;;;;;;;;5121391;27;20045;-88
2021/12/19 08:52:39;;;;;;;6.60;2.10;;;;;;;;;;5122283;27;20042;-89
2021/12/19 08:55:06;;;;;;;5.85;2.05;;;;;;;;;;5123787;27;20460;-88
2021/12/19 08:57:32;;;;;;;4.28;2.42;;;;;;;;;;5121811;27;20039;-89
2021/12/19 08:59:58;;;;;;;7.65;2.38;;;;;;;;;;5139875;27;20035;-88
2021/12/19 09:02:25;;;;;;;7.60;2.33;;;;;;;;;;5123341;27;20078;-88
2021/12/19 09:04:51;;;;;;;10.70;2.92;;;;;;;;;;5124186;27;20038;-89
2021/12/19 09:07:18;;;;;;;15.30;3.35;;;;;;;;;;5123427;27;20071;-89
2021/12/19 09:09:45;;;;;;;18.02;2.15;;;;;;;;;;5118730;27;20120;-89
2021/12/19 09:12:11;;;;;;;14.05;2.58;;;;;;;;;;5117972;27;20082;-89
2021/12/19 09:14:37;;;;;;;10.85;2.58;;;;;;;;;;5134975;27;20078;-89
2021/12/19 09:17:04;;;;;;;9.32;3.20;;;;;;;;;;5134699;27;20121;-88
2021/12/19 09:19:30;;;;;;;10.65;3.03;;;;;;;;;;5117918;27;20050;-88
2021/12/19 09:21:56;;;;;;;8.25;2.67;;;;;;;;;;5118173;27;20042;-88
2021/12/19 09:24:22;;;;;;;5.95;2.60;;;;;;;;;;5118085;27;20043;-88
2021/12/19 09:26:48;;;;;;;9.82;2.90;;;;;;;;;;5134350;27;20043;-88
2021/12/19 09:29:14;;;;;;;12.68;3.13;;;;;;;;;;5134693;27;20058;-88
2021/12/19 09:31:40;;;;;;;12.70;2.97;;;;;;;;;;5117224;27;20123;-88
2021/12/19 09:34:07;;;;;;;17.35;3.10;;;;;;;;;;5117351;27;20035;-88
2021/12/19 09:36:37;;;;;;;13.15;2.75;;;;;;;;;;5117993;27;20043;-88
2021/12/19 09:39:04;;;;;;;11.05;3.25;;;;;;;;;;5134731;27;20555;-89
2021/12/19 09:41:33;;;;;;;9.75;3.00;;;;;;;;;;5117249;28;20049;-89
2021/12/19 09:44:02;;;;;;;8.95;3.90;;;;;;;;;;5117324;28;20088;-87
2021/12/19 09:46:29;;;;;;;11.13;3.08;;;;;;;;;;5117579;28;20501;-88
2021/12/19 09:48:55;;;;;;;13.32;3.00;;;;;;;;;;5116963;28;20072;-88
2021/12/19 09:51:21;;;;;;;17.60;4.43;;;;;;;;;;5134646;28;20051;-87
2021/12/19 09:53:48;;;;;;;14.20;3.63;;;;;;;;;;5117293;27;20135;-89
2021/12/19 09:56:14;;;;;;;11.63;3.85;;;;;;;;;;5120118;27;20039;-89
2021/12/19 09:58:41;;;;;;;12.60;4.50;;;;;;;;;;5138777;27;20613;-88
2021/12/19 10:01:09;;;;;;;14.90;3.65;;;;;;;;;;5121319;27;20043;-88
2021/12/19 10:03:38;;;;;;;11.40;2.90;;;;;;;;;;5139323;27;20043;-88
2021/12/19 10:06:13;;;;;;;18.08;3.08;;;;;;;;;;5121071;27;20399;-89
2021/12/19 10:08:39;;;;;;;14.10;3.63;;;;;;;;;;5139132;27;20043;-89
2021/12/19 10:11:43;;;;;;;8.30;3.30;;;;;;;;;;5120390;27;20476;-86
2021/12/19 10:14:32;;;;;;;10.43;3.30;;;7.70;99.90;;;;;;5120897;27;20043;-88
2021/12/19 10:16:59;;;;;;;9.55;4.13;;;;;;;;;;5138008;27;20046;-88
2021/12/19 10:19:41;;;;;;;24.85;3.45;;;;;;;;;;5120850;27;20462;-88
2021/12/19 10:22:07;;;;;;;14.65;3.78;;;;;;;;;;5121047;27;20491;-89
2021/12/19 10:24:35;;;;;;;15.35;3.70;;;;;;;;;;5121618;27;20130;-88
2021/12/19 10:27:02;;;;;;;12.48;4.00;;;;;;;;;;5122381;27;20447;-88
2021/12/19 10:29:41;;;;;;;14.85;3.47;;;;;;;;;;5121017;27;20047;-88
2021/12/19 10:32:07;;;;;;;10.38;4.50;;;;;;;;;;5138474;27;20172;-88
2021/12/19 10:34:33;;;;;;;9.05;3.10;;;;;;;;;;5121457;27;20046;-88
2021/12/19 10:36:59;;;;;;;10.65;3.15;;;;;;;;;;5120474;27;20039;-88
2021/12/19 10:39:35;;;;;;;21.58;4.68;;;;;;;;;;5120220;27;20035;-89
2021/12/19 10:42:01;;;;;;;17.08;4.05;;;;;;;;;;5120901;27;20399;-89
2021/12/19 10:47:20;;;;;;;8.48;2.50;;;;;;;;;;5137605;27;20146;-88
2021/12/19 10:49:46;;;;;;;19.48;3.83;;;7.70;99.90;;;;;;5120320;27;20051;-88
2021/12/19 10:52:12;;;;;;;13.20;3.85;;;;;;;;;;5120615;27;20043;-89
2021/12/19 10:54:57;;;;;;;16.45;4.05;;;7.50;99.90;;;;;;5137683;27;20043;-89
2021/12/19 10:57:30;;;;;;;16.23;5.38;;;;;;;;;;5121081;27;20069;-89
2021/12/19 10:59:56;;;;;;;15.60;3.70;;;;;;;;;;5120151;27;20427;-87
2021/12/19 11:02:44;;;;;;;13.07;3.60;;;7.90;99.90;;;;;;5137371;27;20526;-89
2021/12/19 11:05:36;;;;;;;17.80;2.88;;;7.70;99.90;;;;;;5120119;27;20053;-89
2021/12/19 11:08:02;;;;;;;15.10;4.28;;;;;;;;;;5119138;27;20580;-88
2021/12/19 11:10:30;;;;;;;12.05;3.95;;;;;;;;;;5136144;27;20531;-88
2021/12/19 11:13:10;;;;;;;6.60;2.47;;;7.90;99.90;;;;;;5138765;27;20059;-89
2021/12/19 11:15:36;;;;;;;8.82;2.90;;;;;;;;;;5137881;27;20126;-89
2021/12/19 11:18:02;;;;;;;11.50;2.58;;;;;;;;;;5120375;27;20043;-88
2021/12/19 11:20:28;;;;;;;11.77;2.58;;;;;;;;;;5120458;27;20035;-89
2021/12/19 11:22:55;;;;;;;9.65;3.15;;;;;;;;;;5119851;27;20043;-89
2021/12/19 11:25:21;;;;;;;15.20;3.75;;;;;;;;;;5120078;27;20039;-89
2021/12/19 11:27:48;;;;;;;12.68;3.55;;;;;;;;;;5119961;27;20124;-89
2021/12/19 11:30:14;;;;;;;19.35;3.47;;;;;;;;;;5137786;27;20047;-88
2021/12/19 11:33:05;;;;;;;12.88;3.45;;;7.80;99.90;;;;;;5137272;27;20483;-89
2021/12/19 11:35:36;;;;;;;13.43;3.28;;;7.70;99.90;;;;;;5120650;27;20043;-89
2021/12/19 11:38:03;;;;;;;8.98;3.72;;;;;;;;;;5120693;27;20036;-89
2021/12/19 11:40:36;;;;;;;10.60;3.15;;;;;;;;;;5120532;27;20499;-89
2021/12/19 11:43:08;;;;;;;21.13;5.18;;;8.10;99.90;;;;;;5120279;27;20039;-89
2021/12/19 11:45:43;;;;;;;7.50;2.95;;;8.10;99.90;;;;;;5119515;27;20050;-90
2021/12/19 11:48:28;;;;;;;12.07;2.97;;;;;;;;;;5119040;27;20035;-89
2021/12/19 11:50:54;;;;;;;14.45;4.78;;;;;;;;;;5136074;27;20055;-89
2021/12/19 11:53:25;;;;;;;12.40;3.03;;;;;;;;;;5118210;27;20505;-89
2021/12/19 11:56:16;;;;;;;21.33;4.40;;;;;;;;;;5135581;27;20453;-89
2021/12/19 11:58:50;;;;;;;19.58;3.95;;;8.20;99.90;;;;;;5133283;27;20118;-89
2021/12/19 12:01:19;;;;;;;;;;;8.30;99.90;;;;;;5119597;27;20043;-89
2021/12/19 12:03:45;;;;;;;18.65;3.65;;;;;;;;;;5136056;27;19953;-89
2021/12/19 12:06:17;;;;;;;13.38;3.13;;;;;;;;;;5119272;27;20083;-89
2021/12/19 12:09:07;;;;;;;20.25;4.63;;;8.20;99.90;;;;;;5119515;27;20134;-89
2021/12/19 12:11:34;;;;;;;15.35;3.15;;;;;;;;;;5119018;27;20057;-88
2021/12/19 12:14:20;;;;;;;14.27;4.72;;;;;;;;;;5136695;27;20047;-88
2021/12/19 12:16:57;;;;;;;11.52;3.80;;;;;;;;;;5136102;27;20043;-88
2021/12/19 12:19:45;;;;;;;16.02;4.28;;;8.00;99.90;;;;;;5135134;27;20544;-88
2021/12/19 12:22:45;;;;;;;25.17;4.28;;;;;;;;;;5136003;27;20391;-87
2021/12/19 12:25:11;;;;;;;16.00;3.90;;;;;;;;;;5134984;27;20047;-88
2021/12/19 12:27:51;;;;;;;15.32;3.70;;;;;;;;;;5118555;27;20486;-87
2021/12/19 12:30:19;;;;;;;18.05;3.83;;;;;;;;;;5135690;27;20239;-87
2021/12/19 12:32:45;;;;;;;12.73;3.33;;;;;;;;;;5118452;27;20488;-87
2021/12/19 12:35:12;;;;;;;17.23;3.85;;;;;;;;;;5136873;27;20039;-87
2021/12/19 12:37:40;;;;;;;11.90;3.38;;;;;;;;;;5136462;27;20039;-88
2021/12/19 12:40:16;;;;;;;21.00;3.90;;;;;;;;;;5136927;27;20046;-87
2021/12/19 12:43:15;;;;;;;10.27;4.65;;;;;;;;;;5121768;27;20050;-85
2021/12/19 12:46:07;;;;;;;16.92;3.80;;;;;;;;;;5024694;28;20057;-88
2021/12/19 12:48:48;;;;;;;19.98;4.65;;;;;;;;;;5057563;28;20123;-88
2021/12/19 12:51:29;;;;;;;20.88;4.07;;;;;;;;;;5051791;28;20048;-87
2021/12/19 12:53:58;;;;;;;18.25;3.97;;;;;;;;;;5056496;28;20052;-87
2021/12/19 12:56:32;;;;;;;21.08;4.03;;;;;;;;;;5058929;28;20053;-87
2021/12/19 12:58:58;;;;;;;;;;;8.40;99.90;;;;;;5059400;28;20041;-88
2021/12/19 13:01:29;;;;;;;11.32;2.83;;;;;;;;;;5052900;28;19944;-88
2021/12/19 13:03:56;;;;;;;12.98;3.22;;;;;;;;;;5057512;28;20049;-88
2021/12/19 13:06:34;;;;;;;17.33;3.55;;;;;;;;;;5052298;28;20072;-88
2021/12/19 13:09:08;;;;;;;14.00;2.92;;;;;;;;;;5039298;28;20041;-88
2021/12/19 13:11:34;;;;;;;14.80;3.13;;;;;;;;;;5021868;28;20053;-88
2021/12/19 13:14:37;;;;;;;16.92;3.30;;;8.20;99.90;;;;;;5020904;28;20052;-88
2021/12/19 13:17:06;;;;;;;7.68;3.42;;;;;;;;;;4961864;28;20133;-88
2021/12/19 13:19:35;;;;;;;19.15;3.90;;;;;;;;;;4977802;28;20046;-87
2021/12/19 13:22:02;;;;;;;7.60;2.85;;;;;;;;;;5026114;28;20060;-87
2021/12/19 13:24:30;;;;;;;11.82;3.33;;;;;;;;;;5039970;28;20052;-88
2021/12/19 13:27:06;;;;;;;9.70;3.63;;;;;;;;;;5056563;28;20047;-88
2021/12/19 13:29:32;;;;;;;14.13;3.38;;;;;;;;;;5056363;28;20036;-88
2021/12/19 13:32:19;;;;;;;11.48;2.80;;;8.20;99.90;;;;;;5056388;28;20048;-88
2021/12/19 13:34:46;;;;;;;19.98;4.32;;;;;;;;;;5056145;28;20041;-88
2021/12/19 13:37:12;;;;;;;16.10;3.80;;;;;;;;;;5039001;28;20166;-88
2021/12/19 13:39:38;;;;;;;20.95;4.88;;;;;;;;;;5055455;28;20040;-87
2021/12/19 13:42:08;;;;;;;15.85;3.30;;;;;;;;;;5039018;28;20080;-88
2021/12/19 13:44:35;;;;;;;18.17;4.50;;;;;;;;;;5038933;28;20055;-88
2021/12/19 13:47:23;;;;;;;14.93;2.70;;;8.10;99.90;;;;;;5055460;28;20076;-88
2021/12/19 13:49:49;;;;;;;9.73;2.83;;;8.30;99.90;;;;;;5039930;27;20390;-88
2021/12/19 13:52:16;;;;;;;5.78;2.25;;;;;;;;;;5134178;27;20069;-88
2021/12/19 13:54:42;;;;;;;10.60;2.90;;;;;;;;;;5134145;28;20046;-88
2021/12/19 13:57:22;;;;;;;18.02;2.67;;;;;;;;;;5116527;28;20411;-88
2021/12/19 13:59:48;;;;;;;7.00;1.50;;;;;;;;;;5116768;28;20050;-88
2021/12/19 14:02:15;;;;;;;7.88;1.63;;;;;;;;;;5135478;28;20043;-88
2021/12/19 14:04:41;;;;;;;5.28;1.77;;;;;;;;;;5134687;28;20043;-88
2021/12/19 14:07:11;;;;;;;3.80;1.52;;;;;;;;;;5134412;28;20139;-88
2021/12/19 14:09:45;;;;;;;6.15;1.40;;;;;;;;;;5134103;28;20063;-88
2021/12/19 14:12:14;;;;;;;2.80;1.23;;;;;;;;;;5117338;28;20051;-88
2021/12/19 14:14:41;;;;;;;2.67;1.10;;;;;;;;;;5117213;28;20050;-88
2021/12/19 14:17:11;;;;;;;5.90;1.10;;;;;;;;;;5133848;28;20479;-88
2021/12/19 14:19:39;;;;;;;2.67;1.20;;;;;;;;;;5133980;28;20047;-88
2021/12/19 14:22:05;;;;;;;3.38;1.85;;;;;;;;;;5116939;28;20062;-88
2021/12/19 14:24:54;;;;;;;5.35;1.80;;;8.10;99.90;;;;;;5116992;28;20484;-89
2021/12/19 14:27:28;;;;;;;7.38;1.17;;;8.30;99.90;;;;;;5117033;28;20492;-89
2021/12/19 14:30:03;;;;;;;8.40;1.50;;;;;;;;;;5117039;28;20476;-88
2021/12/19 14:32:34;;;;;;;14.65;2.50;;;;;;;;;;5116676;28;20399;-87
2021/12/19 14:35:03;;;;;;;4.40;1.52;;;;;;;;;;5134223;28;20043;-87
2021/12/19 14:37:34;;;;;;;7.65;1.90;;;;;;;;;;5133245;28;20138;-88
2021/12/19 14:40:03;;;;;;;10.43;2.10;;;;;;;;;;5133681;28;20050;-88
2021/12/19 14:42:49;;;;;;;8.43;1.70;;;;;;;;;;5137387;27;20084;-89
2021/12/19 14:45:23;;;;;;;11.93;1.98;;;8.00;99.90;;;;;;5120559;27;20141;-88
2021/12/19 14:48:10;;;;;;;6.32;1.80;;;;;;;;;;5138776;27;20043;-87
2021/12/19 14:50:37;;;;;;;10.13;3.17;;;;;;;;;;5120442;27;20527;-87
2021/12/19 14:53:08;;;;;;;7.22;1.75;;;;;;;;;;5137217;27;20051;-87
2021/12/19 14:55:40;;;;;;;18.92;2.63;;;;;;;;;;5138854;27;20106;-86
2021/12/19 14:58:06;;;;;;;5.57;1.90;;;;;;;;;;5120795;27;20090;-87
2021/12/19 15:00:33;;;;;;;14.02;3.10;;;;;;;;;;5138006;27;20486;-87
2021/12/19 15:03:00;;;;;;;11.50;2.22;;;;;;;;;;5136890;27;20043;-87
2021/12/19 15:05:28;;;;;;;9.35;1.88;;;;;;;;;;5119686;27;20047;-87
2021/12/19 15:07:54;;;;;;;8.65;2.17;;;;;;;;;;5136961;27;20107;-87
2021/12/19 15:10:22;;;;;;;5.90;1.88;;;;;;;;;;5136113;27;20073;-87
2021/12/19 15:12:48;;;;;;;15.35;2.53;;;;;;;;;;5119926;27;20055;-87
2021/12/19 15:15:15;;;;;;;6.47;1.80;;;;;;;;;;5137178;27;20126;-87
2021/12/19 15:17:44;;;;;;;10.40;3.25;;;;;;;;;;5120415;27;20061;-87
2021/12/19 15:20:11;;;;;;;4.35;1.77;;;;;;;;;;5137141;27;20051;-87
2021/12/19 15:22:41;;;;;;;8.40;1.95;;;;;;;;;;5136787;27;20039;-87
2021/12/19 15:25:07;;;;;;;6.22;2.08;;;;;;;;;;5120051;27;20043;-88
2021/12/19 15:27:34;;;;;;;11.85;2.33;;;;;;;;;;5137653;27;20103;-88
2021/12/19 15:30:01;;;;;;;13.77;2.58;;;;;;;;;;5120047;27;20587;-88
2021/12/19 15:32:27;;;;;;;7.43;1.65;;;;;;;;;;5120100;27;20035;-88
2021/12/19 15:34:56;;;;;;;4.00;1.60;;;;;;;;;;5136314;27;20145;-87
2021/12/19 15:37:22;;;;;;;6.05;1.15;;;;;;;;;;5137529;27;20039;-88
2021/12/19 15:39:48;;;;;;;3.03;1.73;;;;;;;;;;5137204;27;20137;-87
2021/12/19 15:42:14;;;;;;;6.35;2.13;;;;;;;;;;5137399;27;20043;-86
2021/12/19 15:44:41;;;;;;;6.13;2.03;;;;;;;;;;5136424;27;20050;-87
2021/12/19 15:47:07;;;;;;;14.55;1.98;;;;;;;;;;5137153;27;20047;-87
2021/12/19 15:49:33;;;;;;;23.88;3.35;;;;;;;;;;5136670;27;20047;-87